sensor_id;sensor_type;location;lat;lon;timestamp;temperature;humidity
67870;DHT22;54673;52.262;6.830;2022-11-04T00:01:49;18.90;56.60
67870;DHT22;54673;52.262;6.830;2022-11-04T00:04:17;18.80;56.60
67870;DHT22;54673;52.262;6.830;2022-11-04T00:06:43;18.80;56.50
67870;DHT22;54673;52.262;6.830;2022-11-04T00:09:11;18.80;56.60
67870;DHT22;54673;52.262;6.830;2022-11-04T00:11:37;18.80;56.50
67870;DHT22;54673;52.262;6.830;2022-11-04T00:14:21;18.80;56.50
67870;DHT22;54673;52.262;6.830;2022-11-04T00:16:47;18.80;56.60
67870;DHT22;54673;52.262;6.830;2022-11-04T00:19:31;18.80;56.50
67870;DHT22;54673;52.262;6.830;2022-11-04T00:22:17;18.80;56.50
67870;DHT22;54673;52.262;6.830;2022-11-04T00:25:01;18.80;56.40
67870;DHT22;54673;52.262;6.830;2022-11-04T00:27:46;18.80;56.60
67870;DHT22;54673;52.262;6.830;2022-11-04T00:30:30;18.80;56.50
67870;DHT22;54673;52.262;6.830;2022-11-04T00:32:55;18.70;56.50
67870;DHT22;54673;52.262;6.830;2022-11-04T00:35:39;18.80;56.60
67870;DHT22;54673;52.262;6.830;2022-11-04T00:38:05;18.80;56.50
67870;DHT22;54673;52.262;6.830;2022-11-04T00:40:30;18.80;56.60
67870;DHT22;54673;52.262;6.830;2022-11-04T00:42:56;18.80;56.60
67870;DHT22;54673;52.262;6.830;2022-11-04T00:45:21;18.80;56.60
67870;DHT22;54673;52.262;6.830;2022-11-04T00:47:47;18.80;56.70
67870;DHT22;54673;52.262;6.830;2022-11-04T00:50:13;18.80;56.70
67870;DHT22;54673;52.262;6.830;2022-11-04T00:52:38;18.80;56.70
67870;DHT22;54673;52.262;6.830;2022-11-04T00:55:04;18.70;56.60
67870;DHT22;54673;52.262;6.830;2022-11-04T00:57:30;18.80;56.70
67870;DHT22;54673;52.262;6.830;2022-11-04T00:59:56;18.80;56.70
67870;DHT22;54673;52.262;6.830;2022-11-04T01:02:21;18.80;56.70
67870;DHT22;54673;52.262;6.830;2022-11-04T01:04:47;18.80;56.70
67870;DHT22;54673;52.262;6.830;2022-11-04T01:07:13;18.80;56.70
67870;DHT22;54673;52.262;6.830;2022-11-04T01:09:38;18.80;56.70
67870;DHT22;54673;52.262;6.830;2022-11-04T01:12:04;18.70;56.70
67870;DHT22;54673;52.262;6.830;2022-11-04T01:14:30;18.70;56.70
67870;DHT22;54673;52.262;6.830;2022-11-04T01:16:55;18.70;56.70
67870;DHT22;54673;52.262;6.830;2022-11-04T01:19:21;18.70;56.80
67870;DHT22;54673;52.262;6.830;2022-11-04T01:21:50;18.70;56.70
67870;DHT22;54673;52.262;6.830;2022-11-04T01:24:15;18.70;56.80
67870;DHT22;54673;52.262;6.830;2022-11-04T01:26:41;18.70;56.80
67870;DHT22;54673;52.262;6.830;2022-11-04T01:29:07;18.70;56.80
67870;DHT22;54673;52.262;6.830;2022-11-04T01:31:32;18.70;56.80
67870;DHT22;54673;52.262;6.830;2022-11-04T01:33:58;18.70;56.70
67870;DHT22;54673;52.262;6.830;2022-11-04T01:36:25;18.70;56.80
67870;DHT22;54673;52.262;6.830;2022-11-04T01:38:51;18.70;56.80
67870;DHT22;54673;52.262;6.830;2022-11-04T01:41:26;18.70;56.80
67870;DHT22;54673;52.262;6.830;2022-11-04T01:43:53;18.70;56.70
67870;DHT22;54673;52.262;6.830;2022-11-04T01:46:43;18.70;56.80
67870;DHT22;54673;52.262;6.830;2022-11-04T01:49:34;18.70;56.80
67870;DHT22;54673;52.262;6.830;2022-11-04T01:52:08;18.70;56.90
67870;DHT22;54673;52.262;6.830;2022-11-04T01:54:36;18.70;56.80
67870;DHT22;54673;52.262;6.830;2022-11-04T01:57:06;18.70;56.80
67870;DHT22;54673;52.262;6.830;2022-11-04T01:59:37;18.70;56.90
67870;DHT22;54673;52.262;6.830;2022-11-04T02:02:03;18.70;56.90
67870;DHT22;54673;52.262;6.830;2022-11-04T02:04:29;18.70;56.90
67870;DHT22;54673;52.262;6.830;2022-11-04T02:07:00;18.70;56.80
67870;DHT22;54673;52.262;6.830;2022-11-04T02:09:28;18.70;56.90
67870;DHT22;54673;52.262;6.830;2022-11-04T02:11:54;18.60;56.80
67870;DHT22;54673;52.262;6.830;2022-11-04T02:14:39;18.60;56.80
67870;DHT22;54673;52.262;6.830;2022-11-04T02:19:52;18.60;56.80
67870;DHT22;54673;52.262;6.830;2022-11-04T02:30:51;18.60;56.80
67870;DHT22;54673;52.262;6.830;2022-11-04T02:38:31;18.60;56.90
67870;DHT22;54673;52.262;6.830;2022-11-04T02:46:36;18.60;56.90
67870;DHT22;54673;52.262;6.830;2022-11-04T02:49:11;18.60;56.90
67870;DHT22;54673;52.262;6.830;2022-11-04T02:51:39;18.60;56.90
67870;DHT22;54673;52.262;6.830;2022-11-04T02:54:11;18.60;56.80
67870;DHT22;54673;52.262;6.830;2022-11-04T02:56:43;18.60;56.80
67870;DHT22;54673;52.262;6.830;2022-11-04T02:59:27;18.60;56.80
67870;DHT22;54673;52.262;6.830;2022-11-04T03:01:55;18.60;56.80
67870;DHT22;54673;52.262;6.830;2022-11-04T03:04:28;18.60;56.70
67870;DHT22;54673;52.262;6.830;2022-11-04T03:06:57;18.60;56.90
67870;DHT22;54673;52.262;6.830;2022-11-04T03:09:24;18.60;56.80
67870;DHT22;54673;52.262;6.830;2022-11-04T03:11:56;18.60;56.90
67870;DHT22;54673;52.262;6.830;2022-11-04T03:14:34;18.60;56.80
67870;DHT22;54673;52.262;6.830;2022-11-04T03:17:03;18.60;56.90
67870;DHT22;54673;52.262;6.830;2022-11-04T03:19:53;18.60;56.80
67870;DHT22;54673;52.262;6.830;2022-11-04T03:22:23;18.60;56.80
67870;DHT22;54673;52.262;6.830;2022-11-04T03:24:50;18.60;56.80
67870;DHT22;54673;52.262;6.830;2022-11-04T03:30:13;18.60;56.80
67870;DHT22;54673;52.262;6.830;2022-11-04T03:35:23;18.50;56.80
67870;DHT22;54673;52.262;6.830;2022-11-04T03:37:49;18.50;56.80
67870;DHT22;54673;52.262;6.830;2022-11-04T03:40:16;18.50;56.80
67870;DHT22;54673;52.262;6.830;2022-11-04T03:42:46;18.50;56.80
67870;DHT22;54673;52.262;6.830;2022-11-04T03:45:13;18.50;56.80
67870;DHT22;54673;52.262;6.830;2022-11-04T03:47:39;18.50;56.80
67870;DHT22;54673;52.262;6.830;2022-11-04T03:50:21;18.50;56.80
67870;DHT22;54673;52.262;6.830;2022-11-04T03:52:48;18.50;56.80
67870;DHT22;54673;52.262;6.830;2022-11-04T03:55:14;18.50;56.80
67870;DHT22;54673;52.262;6.830;2022-11-04T03:58:07;18.50;56.80
67870;DHT22;54673;52.262;6.830;2022-11-04T04:00:41;18.50;56.70
67870;DHT22;54673;52.262;6.830;2022-11-04T04:03:50;18.50;57.60
67870;DHT22;54673;52.262;6.830;2022-11-04T04:06:27;18.50;56.70
67870;DHT22;54673;52.262;6.830;2022-11-04T04:09:11;18.50;56.80
67870;DHT22;54673;52.262;6.830;2022-11-04T04:11:45;18.50;56.70
67870;DHT22;54673;52.262;6.830;2022-11-04T04:14:26;18.50;56.80
67870;DHT22;54673;52.262;6.830;2022-11-04T04:17:31;18.40;56.70
67870;DHT22;54673;52.262;6.830;2022-11-04T04:20:01;18.50;56.80
67870;DHT22;54673;52.262;6.830;2022-11-04T04:22:32;18.50;56.70
67870;DHT22;54673;52.262;6.830;2022-11-04T04:25:02;18.50;56.80
67870;DHT22;54673;52.262;6.830;2022-11-04T04:27:48;18.50;56.80
67870;DHT22;54673;52.262;6.830;2022-11-04T04:30:16;18.50;56.80
67870;DHT22;54673;52.262;6.830;2022-11-04T04:35:11;18.40;56.70
67870;DHT22;54673;52.262;6.830;2022-11-04T04:38:00;18.50;56.80
67870;DHT22;54673;52.262;6.830;2022-11-04T04:40:50;18.50;56.80
67870;DHT22;54673;52.262;6.830;2022-11-04T04:43:37;18.40;56.70
67870;DHT22;54673;52.262;6.830;2022-11-04T04:46:24;18.50;56.80
67870;DHT22;54673;52.262;6.830;2022-11-04T04:48:50;18.40;56.70
67870;DHT22;54673;52.262;6.830;2022-11-04T04:51:16;18.50;56.80
67870;DHT22;54673;52.262;6.830;2022-11-04T04:53:42;18.50;56.80
67870;DHT22;54673;52.262;6.830;2022-11-04T04:56:07;18.40;56.70
67870;DHT22;54673;52.262;6.830;2022-11-04T04:58:33;18.50;56.80
67870;DHT22;54673;52.262;6.830;2022-11-04T05:00:58;18.40;56.70
67870;DHT22;54673;52.262;6.830;2022-11-04T05:03:24;18.40;56.70
67870;DHT22;54673;52.262;6.830;2022-11-04T05:05:49;18.40;56.70
67870;DHT22;54673;52.262;6.830;2022-11-04T05:08:15;18.40;56.70
67870;DHT22;54673;52.262;6.830;2022-11-04T05:10:40;18.40;56.70
67870;DHT22;54673;52.262;6.830;2022-11-04T05:13:06;18.40;56.80
67870;DHT22;54673;52.262;6.830;2022-11-04T05:15:50;18.40;56.90
67870;DHT22;54673;52.262;6.830;2022-11-04T05:18:16;18.40;56.70
67870;DHT22;54673;52.262;6.830;2022-11-04T05:20:41;18.40;56.70
67870;DHT22;54673;52.262;6.830;2022-11-04T05:23:07;18.40;56.70
67870;DHT22;54673;52.262;6.830;2022-11-04T05:25:37;18.40;56.70
67870;DHT22;54673;52.262;6.830;2022-11-04T05:28:04;18.40;56.70
67870;DHT22;54673;52.262;6.830;2022-11-04T05:30:30;18.40;56.70
67870;DHT22;54673;52.262;6.830;2022-11-04T05:32:56;18.40;56.70
67870;DHT22;54673;52.262;6.830;2022-11-04T05:35:21;18.40;56.70
67870;DHT22;54673;52.262;6.830;2022-11-04T05:37:47;18.40;56.70
67870;DHT22;54673;52.262;6.830;2022-11-04T05:40:13;18.40;56.70
67870;DHT22;54673;52.262;6.830;2022-11-04T05:42:39;18.40;56.80
67870;DHT22;54673;52.262;6.830;2022-11-04T05:45:05;18.40;56.80
67870;DHT22;54673;52.262;6.830;2022-11-04T05:47:30;18.40;56.80
67870;DHT22;54673;52.262;6.830;2022-11-04T05:49:56;18.40;56.80
67870;DHT22;54673;52.262;6.830;2022-11-04T05:52:22;18.40;56.80
67870;DHT22;54673;52.262;6.830;2022-11-04T05:54:47;18.40;56.70
67870;DHT22;54673;52.262;6.830;2022-11-04T05:57:13;18.40;56.70
67870;DHT22;54673;52.262;6.830;2022-11-04T05:59:38;18.40;56.70
67870;DHT22;54673;52.262;6.830;2022-11-04T06:02:04;18.40;56.80
67870;DHT22;54673;52.262;6.830;2022-11-04T06:04:30;18.40;56.80
67870;DHT22;54673;52.262;6.830;2022-11-04T06:06:56;18.30;56.70
67870;DHT22;54673;52.262;6.830;2022-11-04T06:09:22;18.40;56.80
67870;DHT22;54673;52.262;6.830;2022-11-04T06:12:13;18.40;56.80
67870;DHT22;54673;52.262;6.830;2022-11-04T06:14:40;18.40;56.80
67870;DHT22;54673;52.262;6.830;2022-11-04T06:17:06;18.30;56.80
67870;DHT22;54673;52.262;6.830;2022-11-04T06:19:32;18.30;56.80
67870;DHT22;54673;52.262;6.830;2022-11-04T06:21:58;18.30;56.80
67870;DHT22;54673;52.262;6.830;2022-11-04T06:24:24;18.40;56.90
67870;DHT22;54673;52.262;6.830;2022-11-04T06:26:50;18.30;56.80
67870;DHT22;54673;52.262;6.830;2022-11-04T06:29:16;18.40;56.90
67870;DHT22;54673;52.262;6.830;2022-11-04T06:31:41;18.30;56.80
67870;DHT22;54673;52.262;6.830;2022-11-04T06:34:07;18.30;56.80
67870;DHT22;54673;52.262;6.830;2022-11-04T06:36:33;18.30;56.80
67870;DHT22;54673;52.262;6.830;2022-11-04T06:38:58;18.30;56.80
67870;DHT22;54673;52.262;6.830;2022-11-04T06:41:24;18.30;56.80
67870;DHT22;54673;52.262;6.830;2022-11-04T06:43:49;18.30;56.80
67870;DHT22;54673;52.262;6.830;2022-11-04T06:46:33;18.30;56.80
67870;DHT22;54673;52.262;6.830;2022-11-04T06:48:59;18.30;56.80
67870;DHT22;54673;52.262;6.830;2022-11-04T06:51:25;18.30;56.80
67870;DHT22;54673;52.262;6.830;2022-11-04T06:53:51;18.30;56.80
67870;DHT22;54673;52.262;6.830;2022-11-04T06:56:17;18.30;56.80
67870;DHT22;54673;52.262;6.830;2022-11-04T06:58:43;18.30;56.80
67870;DHT22;54673;52.262;6.830;2022-11-04T07:01:08;18.30;56.80
67870;DHT22;54673;52.262;6.830;2022-11-04T07:03:34;18.30;56.80
67870;DHT22;54673;52.262;6.830;2022-11-04T07:06:05;18.30;56.70
67870;DHT22;54673;52.262;6.830;2022-11-04T07:08:30;18.30;56.80
67870;DHT22;54673;52.262;6.830;2022-11-04T07:10:56;18.30;56.70
67870;DHT22;54673;52.262;6.830;2022-11-04T07:13:21;18.30;56.80
67870;DHT22;54673;52.262;6.830;2022-11-04T07:15:47;18.30;56.80
67870;DHT22;54673;52.262;6.830;2022-11-04T07:18:12;18.30;56.80
67870;DHT22;54673;52.262;6.830;2022-11-04T07:20:38;18.30;56.80
67870;DHT22;54673;52.262;6.830;2022-11-04T07:23:04;18.30;56.80
67870;DHT22;54673;52.262;6.830;2022-11-04T07:25:30;18.30;56.80
67870;DHT22;54673;52.262;6.830;2022-11-04T07:27:55;18.30;56.80
67870;DHT22;54673;52.262;6.830;2022-11-04T07:30:21;18.30;56.90
67870;DHT22;54673;52.262;6.830;2022-11-04T07:32:47;18.30;56.80
67870;DHT22;54673;52.262;6.830;2022-11-04T07:35:13;18.30;56.80
67870;DHT22;54673;52.262;6.830;2022-11-04T07:37:39;18.30;56.80
67870;DHT22;54673;52.262;6.830;2022-11-04T07:40:05;18.30;56.80
67870;DHT22;54673;52.262;6.830;2022-11-04T07:42:30;18.30;56.80
67870;DHT22;54673;52.262;6.830;2022-11-04T07:44:56;18.30;56.80
67870;DHT22;54673;52.262;6.830;2022-11-04T07:47:22;18.20;56.70
67870;DHT22;54673;52.262;6.830;2022-11-04T07:49:47;18.30;56.90
67870;DHT22;54673;52.262;6.830;2022-11-04T07:52:13;18.30;56.80
67870;DHT22;54673;52.262;6.830;2022-11-04T07:54:38;18.20;56.70
67870;DHT22;54673;52.262;6.830;2022-11-04T07:57:04;18.20;56.70
67870;DHT22;54673;52.262;6.830;2022-11-04T07:59:29;18.20;56.70
67870;DHT22;54673;52.262;6.830;2022-11-04T08:01:55;18.20;56.70
67870;DHT22;54673;52.262;6.830;2022-11-04T08:04:21;18.20;56.70
67870;DHT22;54673;52.262;6.830;2022-11-04T08:06:46;18.20;56.70
67870;DHT22;54673;52.262;6.830;2022-11-04T08:09:12;18.20;56.70
67870;DHT22;54673;52.262;6.830;2022-11-04T08:11:38;18.20;56.80
67870;DHT22;54673;52.262;6.830;2022-11-04T08:14:04;18.20;56.70
67870;DHT22;54673;52.262;6.830;2022-11-04T08:16:30;18.20;56.70
67870;DHT22;54673;52.262;6.830;2022-11-04T08:18:56;18.20;56.70
67870;DHT22;54673;52.262;6.830;2022-11-04T08:21:27;18.20;56.80
67870;DHT22;54673;52.262;6.830;2022-11-04T08:23:53;18.20;56.70
67870;DHT22;54673;52.262;6.830;2022-11-04T08:26:19;18.20;56.70
67870;DHT22;54673;52.262;6.830;2022-11-04T08:28:48;18.20;56.70
67870;DHT22;54673;52.262;6.830;2022-11-04T08:31:23;18.20;56.80
67870;DHT22;54673;52.262;6.830;2022-11-04T08:33:50;18.20;57.70
67870;DHT22;54673;52.262;6.830;2022-11-04T08:38:46;18.20;56.80
67870;DHT22;54673;52.262;6.830;2022-11-04T08:41:14;18.20;56.80
67870;DHT22;54673;52.262;6.830;2022-11-04T08:43:40;18.20;56.70
67870;DHT22;54673;52.262;6.830;2022-11-04T08:46:08;18.20;56.70
67870;DHT22;54673;52.262;6.830;2022-11-04T08:48:35;18.20;56.70
67870;DHT22;54673;52.262;6.830;2022-11-04T08:51:03;18.20;56.80
67870;DHT22;54673;52.262;6.830;2022-11-04T08:53:29;18.20;56.70
67870;DHT22;54673;52.262;6.830;2022-11-04T08:55:55;18.20;56.70
67870;DHT22;54673;52.262;6.830;2022-11-04T08:58:22;18.20;56.70
67870;DHT22;54673;52.262;6.830;2022-11-04T09:00:48;18.20;56.70
67870;DHT22;54673;52.262;6.830;2022-11-04T09:03:14;18.20;56.70
67870;DHT22;54673;52.262;6.830;2022-11-04T09:05:41;18.20;56.70
67870;DHT22;54673;52.262;6.830;2022-11-04T09:08:12;18.20;56.70
67870;DHT22;54673;52.262;6.830;2022-11-04T09:10:47;18.20;56.70
67870;DHT22;54673;52.262;6.830;2022-11-04T09:13:14;18.20;56.70
67870;DHT22;54673;52.262;6.830;2022-11-04T09:15:40;18.20;56.70
67870;DHT22;54673;52.262;6.830;2022-11-04T09:18:06;18.20;56.80
67870;DHT22;54673;52.262;6.830;2022-11-04T09:20:33;18.20;56.70
67870;DHT22;54673;52.262;6.830;2022-11-04T09:22:58;18.20;56.70
67870;DHT22;54673;52.262;6.830;2022-11-04T09:25:24;18.20;56.70
67870;DHT22;54673;52.262;6.830;2022-11-04T09:27:50;18.20;56.80
67870;DHT22;54673;52.262;6.830;2022-11-04T09:30:16;18.20;57.70
67870;DHT22;54673;52.262;6.830;2022-11-04T09:32:41;18.20;56.80
67870;DHT22;54673;52.262;6.830;2022-11-04T09:35:07;18.30;57.00
67870;DHT22;54673;52.262;6.830;2022-11-04T09:37:33;18.30;57.10
67870;DHT22;54673;52.262;6.830;2022-11-04T09:39:59;18.30;57.20
67870;DHT22;54673;52.262;6.830;2022-11-04T09:42:48;18.30;57.00
67870;DHT22;54673;52.262;6.830;2022-11-04T09:45:25;18.30;57.50
67870;DHT22;54673;52.262;6.830;2022-11-04T09:47:53;18.40;57.40
67870;DHT22;54673;52.262;6.830;2022-11-04T09:50:24;18.40;57.30
67870;DHT22;54673;52.262;6.830;2022-11-04T09:53:05;18.30;57.20
67870;DHT22;54673;52.262;6.830;2022-11-04T09:55:49;18.30;57.20
67870;DHT22;54673;52.262;6.830;2022-11-04T09:58:17;18.30;57.20
67870;DHT22;54673;52.262;6.830;2022-11-04T10:01:33;18.30;57.10
67870;DHT22;54673;52.262;6.830;2022-11-04T10:04:13;18.30;57.20
67870;DHT22;54673;52.262;6.830;2022-11-04T10:07:11;18.30;57.10
67870;DHT22;54673;52.262;6.830;2022-11-04T10:23:43;18.30;57.00
67870;DHT22;54673;52.262;6.830;2022-11-04T10:26:22;18.30;57.00
67870;DHT22;54673;52.262;6.830;2022-11-04T10:28:59;18.30;57.00
67870;DHT22;54673;52.262;6.830;2022-11-04T10:31:27;18.30;57.10
67870;DHT22;54673;52.262;6.830;2022-11-04T10:33:54;18.30;57.10
67870;DHT22;54673;52.262;6.830;2022-11-04T10:36:20;18.30;57.00
67870;DHT22;54673;52.262;6.830;2022-11-04T10:38:55;18.30;57.00
67870;DHT22;54673;52.262;6.830;2022-11-04T10:41:25;18.40;57.30
67870;DHT22;54673;52.262;6.830;2022-11-04T10:49:04;18.40;57.20
67870;DHT22;54673;52.262;6.830;2022-11-04T10:51:31;18.40;57.20
67870;DHT22;54673;52.262;6.830;2022-11-04T10:53:58;18.40;57.10
67870;DHT22;54673;52.262;6.830;2022-11-04T10:56:41;18.40;57.20
67870;DHT22;54673;52.262;6.830;2022-11-04T11:01:53;18.50;57.30
67870;DHT22;54673;52.262;6.830;2022-11-04T11:04:29;18.50;57.30
67870;DHT22;54673;52.262;6.830;2022-11-04T11:06:57;18.50;57.30
67870;DHT22;54673;52.262;6.830;2022-11-04T11:09:32;18.50;57.30
67870;DHT22;54673;52.262;6.830;2022-11-04T11:12:05;18.50;57.30
67870;DHT22;54673;52.262;6.830;2022-11-04T11:14:42;18.50;57.30
67870;DHT22;54673;52.262;6.830;2022-11-04T11:17:24;18.60;57.30
67870;DHT22;54673;52.262;6.830;2022-11-04T11:20:21;18.60;57.40
67870;DHT22;54673;52.262;6.830;2022-11-04T11:22:49;17.90;57.00
67870;DHT22;54673;52.262;6.830;2022-11-04T11:27:53;18.60;57.40
67870;DHT22;54673;52.262;6.830;2022-11-04T11:30:25;18.60;57.50
67870;DHT22;54673;52.262;6.830;2022-11-04T11:32:58;18.60;57.50
67870;DHT22;54673;52.262;6.830;2022-11-04T11:35:32;18.60;57.60
67870;DHT22;54673;52.262;6.830;2022-11-04T11:37:59;18.60;57.50
67870;DHT22;54673;52.262;6.830;2022-11-04T11:40:36;18.60;57.50
67870;DHT22;54673;52.262;6.830;2022-11-04T11:43:03;18.60;57.50
67870;DHT22;54673;52.262;6.830;2022-11-04T11:45:29;18.60;57.50
67870;DHT22;54673;52.262;6.830;2022-11-04T11:47:56;18.70;57.60
67870;DHT22;54673;52.262;6.830;2022-11-04T11:50:27;18.70;57.70
67870;DHT22;54673;52.262;6.830;2022-11-04T11:53:16;18.60;57.60
67870;DHT22;54673;52.262;6.830;2022-11-04T11:58:45;18.70;57.70
67870;DHT22;54673;52.262;6.830;2022-11-04T12:03:51;18.70;57.70
67870;DHT22;54673;52.262;6.830;2022-11-04T12:09:59;18.70;57.80
67870;DHT22;54673;52.262;6.830;2022-11-04T12:20:54;18.70;57.80
67870;DHT22;54673;52.262;6.830;2022-11-04T12:23:42;18.80;57.90
67870;DHT22;54673;52.262;6.830;2022-11-04T12:26:15;18.70;57.80
67870;DHT22;54673;52.262;6.830;2022-11-04T12:40:20;18.70;57.20
67870;DHT22;54673;52.262;6.830;2022-11-04T12:51:15;18.60;57.50
67870;DHT22;54673;52.262;6.830;2022-11-04T12:56:37;18.60;57.60
67870;DHT22;54673;52.262;6.830;2022-11-04T13:01:42;18.60;57.50
67870;DHT22;54673;52.262;6.830;2022-11-04T13:04:28;18.60;57.50
67870;DHT22;54673;52.262;6.830;2022-11-04T13:07:00;18.70;57.60
67870;DHT22;54673;52.262;6.830;2022-11-04T13:11:59;18.70;57.50
67870;DHT22;54673;52.262;6.830;2022-11-04T13:14:31;18.70;57.50
67870;DHT22;54673;52.262;6.830;2022-11-04T13:17:05;18.70;57.50
67870;DHT22;54673;52.262;6.830;2022-11-04T13:19:50;18.70;57.60
67870;DHT22;54673;52.262;6.830;2022-11-04T13:22:35;18.70;57.60
67870;DHT22;54673;52.262;6.830;2022-11-04T13:25:28;18.70;57.70
67870;DHT22;54673;52.262;6.830;2022-11-04T13:27:55;18.70;57.70
67870;DHT22;54673;52.262;6.830;2022-11-04T13:31:10;18.80;57.90
67870;DHT22;54673;52.262;6.830;2022-11-04T13:33:57;18.80;57.90
67870;DHT22;54673;52.262;6.830;2022-11-04T13:36:38;18.90;58.20
67870;DHT22;54673;52.262;6.830;2022-11-04T13:39:27;18.90;58.20
67870;DHT22;54673;52.262;6.830;2022-11-04T13:42:28;19.00;58.30
67870;DHT22;54673;52.262;6.830;2022-11-04T13:45:23;19.10;58.40
67870;DHT22;54673;52.262;6.830;2022-11-04T13:47:52;19.20;58.40
67870;DHT22;54673;52.262;6.830;2022-11-04T13:50:37;19.20;58.40
67870;DHT22;54673;52.262;6.830;2022-11-04T13:53:05;19.30;58.30
67870;DHT22;54673;52.262;6.830;2022-11-04T13:55:31;19.30;58.30
67870;DHT22;54673;52.262;6.830;2022-11-04T13:58:01;19.40;58.20
67870;DHT22;54673;52.262;6.830;2022-11-04T14:00:32;19.50;58.10
67870;DHT22;54673;52.262;6.830;2022-11-04T14:06:03;19.60;58.00
67870;DHT22;54673;52.262;6.830;2022-11-04T14:08:29;19.70;57.90
67870;DHT22;54673;52.262;6.830;2022-11-04T14:16:01;19.80;57.80
67870;DHT22;54673;52.262;6.830;2022-11-04T14:18:29;19.90;57.70
67870;DHT22;54673;52.262;6.830;2022-11-04T14:23:33;20.00;57.10
67870;DHT22;54673;52.262;6.830;2022-11-04T14:26:02;20.10;56.90
67870;DHT22;54673;52.262;6.830;2022-11-04T14:28:30;20.10;56.80
67870;DHT22;54673;52.262;6.830;2022-11-04T14:30:58;20.20;56.90
67870;DHT22;54673;52.262;6.830;2022-11-04T14:33:39;20.20;56.80
67870;DHT22;54673;52.262;6.830;2022-11-04T14:44:12;20.40;57.20
67870;DHT22;54673;52.262;6.830;2022-11-04T14:46:43;20.50;57.30
67870;DHT22;54673;52.262;6.830;2022-11-04T14:52:03;20.60;57.30
67870;DHT22;54673;52.262;6.830;2022-11-04T14:54:31;20.60;57.20
67870;DHT22;54673;52.262;6.830;2022-11-04T14:57:13;20.70;57.20
67870;DHT22;54673;52.262;6.830;2022-11-04T14:59:39;20.70;57.00
67870;DHT22;54673;52.262;6.830;2022-11-04T15:02:15;20.80;57.10
67870;DHT22;54673;52.262;6.830;2022-11-04T15:05:02;20.90;57.00
67870;DHT22;54673;52.262;6.830;2022-11-04T15:07:36;20.90;56.90
67870;DHT22;54673;52.262;6.830;2022-11-04T15:10:21;20.90;56.90
67870;DHT22;54673;52.262;6.830;2022-11-04T15:12:49;21.00;56.90
67870;DHT22;54673;52.262;6.830;2022-11-04T15:15:36;21.00;56.80
67870;DHT22;54673;52.262;6.830;2022-11-04T15:18:13;21.00;56.70
67870;DHT22;54673;52.262;6.830;2022-11-04T15:20:50;21.10;56.60
67870;DHT22;54673;52.262;6.830;2022-11-04T15:23:26;21.10;56.60
67870;DHT22;54673;52.262;6.830;2022-11-04T15:25:52;21.20;56.70
67870;DHT22;54673;52.262;6.830;2022-11-04T15:28:21;21.20;56.50
67870;DHT22;54673;52.262;6.830;2022-11-04T15:33:30;21.30;56.40
67870;DHT22;54673;52.262;6.830;2022-11-04T15:35:56;21.30;56.20
67870;DHT22;54673;52.262;6.830;2022-11-04T15:38:25;21.30;56.20
67870;DHT22;54673;52.262;6.830;2022-11-04T15:40:53;21.30;56.20
67870;DHT22;54673;52.262;6.830;2022-11-04T15:43:19;21.40;56.20
67870;DHT22;54673;52.262;6.830;2022-11-04T15:48:30;21.40;56.10
67870;DHT22;54673;52.262;6.830;2022-11-04T15:51:22;21.50;56.00
67870;DHT22;54673;52.262;6.830;2022-11-04T15:53:57;21.50;56.00
67870;DHT22;54673;52.262;6.830;2022-11-04T15:56:31;21.50;55.90
67870;DHT22;54673;52.262;6.830;2022-11-04T15:58:58;21.50;55.70
67870;DHT22;54673;52.262;6.830;2022-11-04T16:01:24;21.60;55.90
67870;DHT22;54673;52.262;6.830;2022-11-04T16:03:55;21.60;55.70
67870;DHT22;54673;52.262;6.830;2022-11-04T16:06:33;21.70;55.70
67870;DHT22;54673;52.262;6.830;2022-11-04T16:09:02;21.70;55.60
67870;DHT22;54673;52.262;6.830;2022-11-04T16:11:28;21.70;55.60
67870;DHT22;54673;52.262;6.830;2022-11-04T16:14:20;21.70;55.70
67870;DHT22;54673;52.262;6.830;2022-11-04T16:16:48;21.70;55.30
67870;DHT22;54673;52.262;6.830;2022-11-04T16:19:19;21.80;55.50
67870;DHT22;54673;52.262;6.830;2022-11-04T16:21:46;21.80;55.50
67870;DHT22;54673;52.262;6.830;2022-11-04T16:24:23;21.80;55.50
67870;DHT22;54673;52.262;6.830;2022-11-04T16:26:50;21.80;55.00
67870;DHT22;54673;52.262;6.830;2022-11-04T16:29:28;21.90;55.30
67870;DHT22;54673;52.262;6.830;2022-11-04T16:34:33;21.90;55.10
67870;DHT22;54673;52.262;6.830;2022-11-04T16:36:58;21.90;55.10
67870;DHT22;54673;52.262;6.830;2022-11-04T16:39:24;22.00;55.30
67870;DHT22;54673;52.262;6.830;2022-11-04T16:41:49;22.00;55.20
67870;DHT22;54673;52.262;6.830;2022-11-04T16:44:20;22.00;56.10
67870;DHT22;54673;52.262;6.830;2022-11-04T16:46:46;22.00;55.10
67870;DHT22;54673;52.262;6.830;2022-11-04T16:49:14;22.00;55.00
67870;DHT22;54673;52.262;6.830;2022-11-04T16:51:40;22.00;55.20
67870;DHT22;54673;52.262;6.830;2022-11-04T16:54:06;22.10;55.10
67870;DHT22;54673;52.262;6.830;2022-11-04T16:56:32;22.10;55.10
67870;DHT22;54673;52.262;6.830;2022-11-04T16:58:58;22.10;55.00
67870;DHT22;54673;52.262;6.830;2022-11-04T17:01:23;22.10;54.80
67870;DHT22;54673;52.262;6.830;2022-11-04T17:03:49;22.20;55.10
67870;DHT22;54673;52.262;6.830;2022-11-04T17:06:15;22.20;54.90
67870;DHT22;54673;52.262;6.830;2022-11-04T17:08:41;22.20;53.70
67870;DHT22;54673;52.262;6.830;2022-11-04T17:11:08;22.20;53.80
67870;DHT22;54673;52.262;6.830;2022-11-04T17:13:34;22.20;53.50
67870;DHT22;54673;52.262;6.830;2022-11-04T17:16:00;22.10;53.30
67870;DHT22;54673;52.262;6.830;2022-11-04T17:18:29;22.00;52.90
67870;DHT22;54673;52.262;6.830;2022-11-04T17:20:55;22.00;52.90
67870;DHT22;54673;52.262;6.830;2022-11-04T17:23:21;21.90;52.90
67870;DHT22;54673;52.262;6.830;2022-11-04T17:25:47;21.90;52.80
67870;DHT22;54673;52.262;6.830;2022-11-04T17:28:13;21.80;52.80
67870;DHT22;54673;52.262;6.830;2022-11-04T17:30:40;21.80;52.90
67870;DHT22;54673;52.262;6.830;2022-11-04T17:33:09;21.70;52.80
67870;DHT22;54673;52.262;6.830;2022-11-04T17:35:36;21.70;53.00
67870;DHT22;54673;52.262;6.830;2022-11-04T17:38:03;21.60;52.90
67870;DHT22;54673;52.262;6.830;2022-11-04T17:40:28;21.60;53.00
67870;DHT22;54673;52.262;6.830;2022-11-04T17:42:54;21.50;53.20
67870;DHT22;54673;52.262;6.830;2022-11-04T17:45:40;21.40;53.20
67870;DHT22;54673;52.262;6.830;2022-11-04T17:48:06;21.40;53.30
67870;DHT22;54673;52.262;6.830;2022-11-04T17:50:33;21.30;53.30
67870;DHT22;54673;52.262;6.830;2022-11-04T17:52:59;21.30;53.50
67870;DHT22;54673;52.262;6.830;2022-11-04T17:55:24;21.20;53.50
67870;DHT22;54673;52.262;6.830;2022-11-04T17:57:50;21.20;53.50
67870;DHT22;54673;52.262;6.830;2022-11-04T18:00:16;21.20;53.60
67870;DHT22;54673;52.262;6.830;2022-11-04T18:02:41;21.10;53.60
67870;DHT22;54673;52.262;6.830;2022-11-04T18:05:07;21.10;53.70